Saint Michael, PA (15951)

3:39 AM EST on March 02, 2015 (GMT -0500)
Fifty Acre Road, Adams Twp | Change Station
CLOSE
Current Station
Personal Weather Station
Location: Johnstown, PA
Elevation: 2122 ft
Nearby Weather Stations

Elev 2122 ft 40.31 °N, 78.81 °W | Updated 7 minutes ago

Overcast
Overcast
29.8 °F
Feels Like 30 °F
N
2.0
Wind Variable Wind from South
Gusts 4.0 mph

Today
High -- | Low -- °F
--% Chance of Precip.
Yesterday
High -- | Low -- °F
Precip. -- in
6:47 AM 6:07 PM
Waxing Gibbous, 90% visible
Pressure 30.03 in
Visibility 0.5 miles
Clouds Overcast 200 ft
Windchill 30 °F
Dew Point 30 °F
Humidity 99%
Rainfall 0.18 in
Snow Depth Not available.
UV 0 out of 12
Pollen .50 out of 12
Air Quality Not available.
Flu Activity Not available.
SPECI KJST 020834Z AUTO 26009KT 1/2SM FZFG OVC002 M02/M02 A3003 RMK AO2 I1000 T10171022

More Conditions Fewer Conditions

Pressure 30.03 in
Visibility 0.5 miles
Clouds Overcast 200 ft
Windchill 30 °F
Dew Point 30 °F
Humidity 99%
Rainfall 0.18 in
Snow Depth Not available.
UV 0 out of 12
Pollen .50 out of 12
Air Quality Not available.
Flu Activity Not available.
SPECI KJST 020834Z AUTO 26009KT 1/2SM FZFG OVC002 M02/M02 A3003 RMK AO2 I1000 T10171022

More Conditions Fewer Conditions

10-Day Weather Forecast

Almanac

Astronomy

Mar. 02, 2015 Rise Set
Actual Time
Civil Twilight
Nautical Twilight
Astronomical Twilight
Moon
Length of Visible Light
Length of Day
Tomorrow will be .
, % of the Moon is Illuminated

Today's Extremes

State Highs State Lows

Community

WunderPhotos

Upload Photos

1,801,751 photos uploaded!

WunderBlogs® & News

Nearby

Air Quality

  Air Quality AQ Index Pollutant
Not available.

Snow Depth

Station Depth Elevation

Earthquake Activity

City Distance Mag. Time & Date
Minimum magnitude displayed is 2.5.

Coastal Water Temperatures

Place Temperature

Nearby Weather Stations

Winter Weather Advisory
Statement as of 2:11 AM EST on March 02, 2015

... Winter Weather Advisory remains in effect until 7 am EST this
morning...

* locations... the Laurel Highlands.

* Hazard types... snow and areas of freezing rain or drizzle.

* Additional snow accumulations... 1 to 3 inches.

* Ice accumulations... around a trace.

* Timing... occasional snow showers will occur early
today... bringing another inch or two of snow
accumulation... especially on the ridges to the west of Route
219.

* Impacts... hazardous travel from snow or slush covered roads.
Untreated roadways and walkways may also be icy.

Precautionary/preparedness actions...

Hazardous winter weather conditions are expected or occurring.
Use caution if traveling. For the latest weather information... go
to weather.Gov/statecollege or monitor NOAA Weather Radio.

Report snow or ice accumulation to the National Weather Service
State College by sending an email to ctp.Stormreports@noaa.Gov...
posting to the NWS State College facebook Page... or tweet
@nwsstatecollege with the hashtag c... T... p... W... x.



Lambert